createdAt,value
2023-04-08T00:00:10.746Z,25.00
2023-04-08T00:01:10.732Z,25.00
2023-04-08T00:02:10.822Z,25.00
2023-04-08T00:03:10.850Z,0.00
2023-04-08T00:04:11.038Z,0.00
2023-04-08T00:05:10.674Z,0.00
2023-04-08T00:06:10.664Z,0.00
2023-04-08T00:07:10.658Z,0.00
2023-04-08T00:08:10.646Z,0.00
2023-04-08T00:09:10.644Z,0.00
2023-04-08T00:10:10.685Z,0.00
2023-04-08T00:11:10.645Z,0.00
2023-04-08T00:12:10.620Z,0.00
2023-04-08T00:13:10.648Z,3.11
2023-04-08T00:14:10.614Z,24.72
2023-04-08T00:15:10.606Z,26.10
2023-04-08T00:16:10.589Z,25.19
2023-04-08T00:17:10.668Z,26.42
2023-04-08T00:18:10.682Z,27.19
2023-04-08T00:19:10.573Z,25.00
2023-04-08T00:20:10.588Z,28.21
2023-04-08T00:21:10.574Z,25.00
2023-04-08T00:22:10.556Z,25.74
2023-04-08T00:23:10.551Z,25.82
2023-04-08T00:24:10.552Z,26.51
2023-04-08T00:25:10.541Z,26.08
2023-04-08T00:26:10.552Z,25.00
2023-04-08T00:27:10.556Z,27.00
2023-04-08T00:28:10.541Z,26.49
2023-04-08T00:29:10.586Z,27.93
2023-04-08T00:30:10.547Z,27.68
2023-04-08T00:31:10.575Z,25.00
2023-04-08T00:32:10.546Z,25.30
2023-04-08T00:33:10.624Z,26.01
2023-04-08T00:34:10.529Z,27.18
2023-04-08T00:35:10.534Z,30.47
2023-04-08T00:36:10.532Z,27.32
2023-04-08T00:37:10.534Z,25.03
2023-04-08T00:38:10.532Z,29.01
2023-04-08T00:39:10.519Z,29.42
2023-04-08T00:40:10.518Z,25.76
2023-04-08T00:41:10.516Z,30.85
2023-04-08T00:42:10.517Z,26.29
2023-04-08T00:43:10.526Z,27.39
2023-04-08T00:44:10.514Z,26.63
2023-04-08T00:45:10.537Z,26.18
2023-04-08T00:46:10.568Z,25.00
2023-04-08T00:47:10.508Z,27.44
2023-04-08T00:48:10.506Z,28.28
2023-04-08T00:49:10.509Z,25.27
2023-04-08T00:50:10.499Z,25.45
2023-04-08T00:51:10.502Z,25.35
2023-04-08T00:52:10.512Z,26.02
2023-04-08T00:53:10.492Z,28.00
2023-04-08T00:54:10.494Z,25.54
2023-04-08T00:55:10.486Z,26.36
2023-04-08T00:56:10.498Z,28.35
2023-04-08T00:57:10.481Z,27.46
2023-04-08T00:58:10.486Z,29.03
2023-04-08T00:59:10.487Z,28.62
2023-04-08T01:00:10.468Z,30.00
2023-04-08T01:01:10.531Z,29.18
2023-04-08T01:02:10.609Z,29.46
2023-04-08T01:03:10.604Z,29.81
2023-04-08T01:04:10.584Z,25.19
2023-04-08T01:05:10.472Z,25.88
2023-04-08T01:06:10.474Z,27.92
2023-04-08T01:07:10.474Z,28.92
2023-04-08T01:08:10.472Z,27.81
2023-04-08T01:09:10.475Z,27.78
2023-04-08T01:10:10.470Z,26.36
2023-04-08T01:11:10.477Z,27.24
2023-04-08T01:12:10.477Z,26.32
2023-04-08T01:13:10.484Z,28.79
2023-04-08T01:14:10.484Z,27.79
2023-04-08T01:15:10.475Z,25.89
2023-04-08T01:16:10.515Z,27.79
2023-04-08T01:17:10.492Z,26.75
2023-04-08T01:18:10.473Z,28.62
2023-04-08T01:19:10.480Z,28.57
2023-04-08T01:20:10.468Z,27.21
2023-04-08T01:21:10.472Z,32.66
2023-04-08T01:22:10.471Z,27.94
2023-04-08T01:23:10.476Z,26.75
2023-04-08T01:24:10.478Z,25.92
2023-04-08T01:25:10.486Z,27.30
2023-04-08T01:26:10.470Z,28.90
2023-04-08T01:27:10.487Z,29.43
2023-04-08T01:28:10.483Z,28.58
2023-04-08T01:29:10.480Z,28.96
2023-04-08T01:30:10.487Z,27.07
2023-04-08T01:31:10.571Z,29.16
2023-04-08T01:32:10.507Z,28.61
2023-04-08T01:33:10.530Z,29.41
2023-04-08T01:34:10.511Z,26.69
2023-04-08T01:35:10.508Z,28.16
2023-04-08T01:36:10.501Z,28.48
2023-04-08T01:37:10.502Z,28.38
2023-04-08T01:38:10.510Z,26.41
2023-04-08T01:39:10.517Z,28.21
2023-04-08T01:40:10.519Z,27.45
2023-04-08T01:41:10.521Z,26.01
2023-04-08T01:42:10.527Z,27.61
2023-04-08T01:43:10.528Z,25.38
2023-04-08T01:44:10.529Z,28.15
2023-04-08T01:45:10.528Z,30.62
2023-04-08T01:46:10.608Z,30.09
2023-04-08T01:47:10.538Z,27.65
2023-04-08T01:48:10.543Z,27.01
2023-04-08T01:49:10.568Z,29.89
2023-04-08T01:50:10.556Z,32.39
2023-04-08T01:51:10.550Z,29.47
2023-04-08T01:52:10.582Z,32.11
2023-04-08T01:53:10.553Z,30.02
2023-04-08T01:54:10.550Z,30.74
2023-04-08T01:55:10.555Z,30.42
2023-04-08T01:56:10.544Z,32.74
2023-04-08T01:57:10.550Z,27.43
2023-04-08T01:58:10.557Z,29.08
2023-04-08T01:59:10.581Z,26.06
2023-04-08T02:00:10.570Z,29.53
2023-04-08T02:01:10.564Z,27.78
2023-04-08T02:02:10.619Z,29.15
2023-04-08T02:03:10.745Z,27.19
2023-04-08T02:04:10.766Z,27.83
2023-04-08T02:05:10.622Z,29.10
2023-04-08T02:06:10.580Z,29.86
2023-04-08T02:07:10.585Z,30.66
2023-04-08T02:08:10.583Z,29.29
2023-04-08T02:09:10.594Z,28.24
2023-04-08T02:10:10.613Z,25.71
2023-04-08T02:11:10.605Z,28.16
2023-04-08T02:12:10.627Z,28.73
2023-04-08T02:13:10.612Z,32.03
2023-04-08T02:14:10.652Z,28.90
2023-04-08T02:15:10.627Z,30.95
2023-04-08T02:16:10.660Z,29.75
2023-04-08T02:17:10.630Z,29.21
2023-04-08T02:18:10.708Z,30.27
2023-04-08T02:19:10.646Z,28.55
2023-04-08T02:20:10.649Z,31.77
2023-04-08T02:21:10.702Z,31.67
2023-04-08T02:22:10.659Z,29.04
2023-04-08T02:23:10.659Z,30.93
2023-04-08T02:24:10.665Z,29.02
2023-04-08T02:25:10.682Z,30.64
2023-04-08T02:26:10.750Z,32.00
2023-04-08T02:27:10.693Z,27.83
2023-04-08T02:28:10.669Z,27.99
2023-04-08T02:29:10.670Z,31.85
2023-04-08T02:30:10.680Z,28.78
2023-04-08T02:31:10.720Z,32.24
2023-04-08T02:32:10.684Z,30.23
2023-04-08T02:33:10.718Z,32.34
2023-04-08T02:34:10.695Z,31.48
2023-04-08T02:35:10.694Z,32.42
2023-04-08T02:36:10.698Z,32.55
2023-04-08T02:37:10.723Z,31.70
2023-04-08T02:38:10.699Z,29.75
2023-04-08T02:39:10.708Z,31.06
2023-04-08T02:40:10.706Z,28.42
2023-04-08T02:41:10.704Z,28.19
2023-04-08T02:42:11.943Z,29.92
2023-04-08T02:43:10.698Z,31.32
2023-04-08T02:44:10.695Z,30.04
2023-04-08T02:45:10.698Z,31.51
2023-04-08T02:46:10.800Z,29.82
2023-04-08T02:47:10.709Z,28.31
2023-04-08T02:48:10.726Z,30.87
2023-04-08T02:49:10.724Z,30.68
2023-04-08T02:50:10.703Z,30.58
2023-04-08T02:51:10.703Z,27.21
2023-04-08T02:52:10.709Z,27.67
2023-04-08T02:53:10.746Z,29.37
2023-04-08T02:54:10.715Z,31.12
2023-04-08T02:55:10.804Z,27.77
2023-04-08T02:56:10.713Z,31.24
2023-04-08T02:57:10.713Z,28.15
2023-04-08T02:58:10.718Z,32.12
2023-04-08T02:59:10.722Z,31.49
2023-04-08T03:00:10.731Z,31.43
2023-04-08T03:01:10.790Z,27.88
2023-04-08T03:02:10.804Z,31.69
2023-04-08T03:03:10.806Z,28.47
2023-04-08T03:04:10.740Z,34.03
2023-04-08T03:05:10.737Z,31.39
2023-04-08T03:06:10.747Z,29.46
2023-04-08T03:07:10.778Z,28.74
2023-04-08T03:08:10.747Z,28.18
2023-04-08T03:09:10.768Z,30.48
2023-04-08T03:10:10.745Z,29.74
2023-04-08T03:11:10.753Z,31.10
2023-04-08T03:12:10.775Z,32.13
2023-04-08T03:13:10.811Z,29.14
2023-04-08T03:14:10.768Z,26.71
2023-04-08T03:15:10.764Z,30.28
2023-04-08T03:16:10.767Z,27.54
2023-04-08T03:17:10.773Z,30.06
2023-04-08T03:18:10.784Z,30.68
2023-04-08T03:19:10.777Z,28.67
2023-04-08T03:20:10.785Z,31.86
2023-04-08T03:21:10.796Z,30.90
2023-04-08T03:22:10.801Z,32.00
2023-04-08T03:23:10.814Z,32.17
2023-04-08T03:24:10.816Z,28.86
2023-04-08T03:25:10.849Z,25.81
2023-04-08T03:26:10.833Z,29.67
2023-04-08T03:27:10.844Z,30.48
2023-04-08T03:28:10.873Z,29.69
2023-04-08T03:29:17.826Z,30.46
2023-04-08T03:30:10.837Z,30.95
2023-04-08T03:31:10.811Z,31.96
2023-04-08T03:32:10.819Z,32.39
2023-04-08T03:33:10.860Z,36.17
2023-04-08T03:34:10.737Z,33.91
2023-04-08T03:35:10.761Z,32.89
2023-04-08T03:36:10.688Z,30.30
2023-04-08T03:37:10.703Z,32.35
2023-04-08T03:38:10.717Z,32.37
2023-04-08T03:39:10.732Z,31.19
2023-04-08T03:40:10.770Z,32.57
2023-04-08T03:41:10.772Z,31.78
2023-04-08T03:42:10.751Z,30.18
2023-04-08T03:43:10.762Z,29.66
2023-04-08T03:44:10.761Z,29.57
2023-04-08T03:45:10.783Z,28.99
2023-04-08T03:46:11.561Z,27.72
2023-04-08T03:47:10.773Z,30.29
2023-04-08T03:48:10.780Z,29.12
2023-04-08T03:49:10.776Z,28.02
2023-04-08T03:50:10.763Z,26.90
2023-04-08T03:51:10.773Z,28.33
2023-04-08T03:52:10.771Z,27.77
2023-04-08T03:53:10.779Z,30.94
2023-04-08T03:54:10.770Z,29.25
2023-04-08T03:55:10.787Z,30.72
2023-04-08T03:56:10.780Z,30.03
2023-04-08T03:57:10.802Z,30.62
2023-04-08T03:58:10.785Z,27.66
2023-04-08T03:59:10.788Z,29.12
2023-04-08T04:00:10.801Z,29.44
2023-04-08T04:01:10.792Z,28.11
2023-04-08T04:02:10.857Z,30.64
2023-04-08T04:03:10.923Z,27.36
2023-04-08T04:04:11.041Z,29.27
2023-04-08T04:05:10.813Z,30.70
2023-04-08T04:06:10.800Z,27.88
2023-04-08T04:07:10.808Z,29.49
2023-04-08T04:08:10.809Z,30.71
2023-04-08T04:09:10.816Z,29.20
2023-04-08T04:10:10.821Z,31.29
2023-04-08T04:11:10.825Z,30.37
2023-04-08T04:12:10.832Z,28.87
2023-04-08T04:13:10.856Z,28.23
2023-04-08T04:14:10.836Z,30.26
2023-04-08T04:15:10.850Z,26.94
2023-04-08T04:16:10.870Z,29.13
2023-04-08T04:17:10.833Z,30.24
2023-04-08T04:18:10.929Z,30.06
2023-04-08T04:19:10.827Z,28.54
2023-04-08T04:20:10.835Z,25.71
2023-04-08T04:21:10.836Z,30.44
2023-04-08T04:22:10.835Z,28.31
2023-04-08T04:23:10.851Z,27.92
2023-04-08T04:24:10.839Z,27.29
2023-04-08T04:25:10.884Z,27.02
2023-04-08T04:26:10.870Z,30.37
2023-04-08T04:27:10.842Z,29.73
2023-04-08T04:28:10.846Z,29.44
2023-04-08T04:29:10.881Z,27.90
2023-04-08T04:30:10.868Z,33.54
2023-04-08T04:31:10.898Z,32.04
2023-04-08T04:32:10.870Z,29.71
2023-04-08T04:33:10.940Z,29.00
2023-04-08T04:34:10.871Z,31.71
2023-04-08T04:35:10.882Z,32.34
2023-04-08T04:36:10.886Z,29.00
2023-04-08T04:37:10.896Z,32.33
2023-04-08T04:38:10.896Z,31.27
2023-04-08T04:39:10.903Z,31.24
2023-04-08T04:40:10.910Z,32.49
2023-04-08T04:41:10.905Z,29.47
2023-04-08T04:42:10.909Z,28.91
2023-04-08T04:43:10.936Z,27.83
2023-04-08T04:44:10.939Z,30.13
2023-04-08T04:45:10.936Z,31.36
2023-04-08T04:46:11.010Z,30.24
2023-04-08T04:47:10.902Z,33.00
2023-04-08T04:48:10.909Z,32.45
2023-04-08T04:49:10.980Z,31.68
2023-04-08T04:50:10.894Z,28.66
2023-04-08T04:51:10.913Z,36.51
2023-04-08T04:52:10.911Z,33.65
2023-04-08T04:53:10.938Z,29.20
2023-04-08T04:54:10.915Z,31.20
2023-04-08T04:55:10.910Z,33.14
2023-04-08T04:56:10.908Z,32.11
2023-04-08T04:57:10.911Z,30.76
2023-04-08T04:58:10.936Z,32.14
2023-04-08T04:59:10.914Z,31.98
2023-04-08T05:00:10.932Z,33.35
2023-04-08T05:01:11.044Z,32.93
2023-04-08T05:02:11.043Z,32.56
2023-04-08T05:03:11.045Z,32.05
2023-04-08T05:04:10.933Z,30.48
2023-04-08T05:05:10.977Z,32.82
2023-04-08T05:06:10.944Z,32.05
2023-04-08T05:07:10.960Z,33.25
2023-04-08T05:08:11.023Z,32.05
2023-04-08T05:09:10.975Z,33.45
2023-04-08T05:10:10.989Z,30.69
2023-04-08T05:11:10.971Z,32.43
2023-04-08T05:12:10.982Z,32.19
2023-04-08T05:13:11.009Z,30.22
2023-04-08T05:14:10.986Z,32.40
2023-04-08T05:15:10.994Z,32.20
2023-04-08T05:16:11.010Z,32.96
2023-04-08T05:17:11.030Z,30.72
2023-04-08T05:18:11.065Z,31.54
2023-04-08T05:19:11.003Z,32.43
2023-04-08T05:20:11.012Z,32.17
2023-04-08T05:21:11.063Z,31.60
2023-04-08T05:22:11.021Z,32.84
2023-04-08T05:23:11.038Z,33.55
2023-04-08T05:24:11.028Z,31.22
2023-04-08T05:25:11.109Z,34.89
2023-04-08T05:26:11.045Z,34.14
2023-04-08T05:27:11.053Z,33.35
2023-04-08T05:28:11.055Z,30.21
2023-04-08T05:29:11.051Z,31.56
2023-04-08T05:30:11.120Z,31.93
2023-04-08T05:31:11.062Z,31.01
2023-04-08T05:32:11.075Z,32.30
2023-04-08T05:33:11.186Z,29.57
2023-04-08T05:34:11.061Z,35.57
2023-04-08T05:35:11.086Z,34.28
2023-04-08T05:36:11.072Z,30.65
2023-04-08T05:37:11.100Z,32.18
2023-04-08T05:38:11.073Z,34.02
2023-04-08T05:39:11.097Z,34.59
2023-04-08T05:40:11.106Z,33.98
2023-04-08T05:41:11.543Z,34.35
2023-04-08T05:42:11.110Z,29.69
2023-04-08T05:43:11.091Z,33.53
2023-04-08T05:44:11.085Z,31.81
2023-04-08T05:45:11.087Z,34.99
2023-04-08T05:46:11.085Z,33.69
2023-04-08T05:47:11.204Z,34.24
2023-04-08T05:48:11.137Z,32.59
2023-04-08T05:49:11.106Z,31.35
2023-04-08T05:50:11.089Z,30.90
2023-04-08T05:51:11.070Z,31.64
2023-04-08T05:52:11.080Z,31.60
2023-04-08T05:53:11.085Z,34.14
2023-04-08T05:54:11.072Z,33.16
2023-04-08T05:55:11.067Z,34.91
2023-04-08T05:56:11.070Z,33.32
2023-04-08T05:57:11.059Z,31.84
2023-04-08T05:58:11.075Z,33.76
2023-04-08T05:59:11.080Z,33.87
2023-04-08T06:00:11.064Z,32.95
2023-04-08T06:01:11.041Z,35.04
2023-04-08T06:02:11.176Z,36.29
2023-04-08T06:03:11.208Z,32.35
2023-04-08T06:04:11.093Z,37.89
2023-04-08T06:05:11.075Z,34.21
2023-04-08T06:06:11.017Z,34.35
2023-04-08T06:07:11.018Z,35.05
2023-04-08T06:08:11.008Z,32.86
2023-04-08T06:09:11.010Z,36.05
2023-04-08T06:10:11.012Z,35.49
2023-04-08T06:11:11.020Z,34.15
2023-04-08T06:12:11.011Z,33.43
2023-04-08T06:13:11.007Z,37.67
2023-04-08T06:14:11.041Z,37.85
2023-04-08T06:15:10.992Z,36.51
2023-04-08T06:16:10.997Z,36.71
2023-04-08T06:17:10.996Z,32.29
2023-04-08T06:18:10.989Z,35.15
2023-04-08T06:19:10.974Z,34.80
2023-04-08T06:20:10.986Z,35.39
2023-04-08T06:21:10.982Z,37.56
2023-04-08T06:22:10.970Z,32.81
2023-04-08T06:23:10.954Z,37.32
2023-04-08T06:24:10.982Z,34.14
2023-04-08T06:25:10.964Z,35.60
2023-04-08T06:26:10.958Z,37.08
2023-04-08T06:27:10.959Z,35.44
2023-04-08T06:28:10.950Z,34.62
2023-04-08T06:29:10.948Z,37.48
2023-04-08T06:30:10.950Z,36.11
2023-04-08T06:31:10.947Z,33.26
2023-04-08T06:32:11.000Z,35.31
2023-04-08T06:33:10.949Z,36.58
2023-04-08T06:34:10.969Z,36.24
2023-04-08T06:35:11.263Z,35.26
2023-04-08T06:36:10.954Z,34.68
2023-04-08T06:37:10.987Z,33.41
2023-04-08T06:38:10.933Z,36.35
2023-04-08T06:39:10.927Z,32.67
2023-04-08T06:40:10.934Z,35.13
2023-04-08T06:41:11.001Z,36.11
2023-04-08T06:42:10.922Z,35.83
2023-04-08T06:43:10.903Z,37.77
2023-04-08T06:44:10.895Z,37.81
2023-04-08T06:45:10.899Z,35.08
2023-04-08T06:46:10.899Z,33.44
2023-04-08T06:47:10.880Z,35.92
2023-04-08T06:48:10.873Z,36.41
2023-04-08T06:49:10.928Z,37.69
2023-04-08T06:50:10.857Z,33.89
2023-04-08T06:51:10.852Z,35.02
2023-04-08T06:52:12.199Z,34.85
2023-04-08T06:53:10.841Z,39.08
2023-04-08T06:54:10.785Z,37.32
2023-04-08T06:55:10.763Z,36.49
2023-04-08T06:56:10.732Z,35.16
2023-04-08T06:57:10.702Z,35.38
2023-04-08T06:58:10.674Z,35.54
2023-04-08T06:59:10.638Z,35.87
2023-04-08T07:00:10.611Z,35.34
2023-04-08T07:01:10.770Z,32.42
2023-04-08T07:02:10.606Z,33.76
2023-04-08T07:03:10.689Z,34.63
2023-04-08T07:04:10.592Z,35.23
2023-04-08T07:05:10.504Z,35.09
2023-04-08T07:06:10.447Z,35.42
2023-04-08T07:07:10.415Z,38.46
2023-04-08T07:08:10.391Z,36.51
2023-04-08T07:09:10.389Z,32.75
2023-04-08T07:10:11.268Z,32.40
2023-04-08T07:11:10.303Z,39.09
2023-04-08T07:12:10.279Z,33.05
2023-04-08T07:13:10.245Z,34.33
2023-04-08T07:14:10.217Z,37.97
2023-04-08T07:15:10.203Z,36.63
2023-04-08T07:16:10.161Z,36.23
2023-04-08T07:17:10.177Z,33.52
2023-04-08T07:18:10.115Z,35.90
2023-04-08T07:19:10.085Z,35.07
2023-04-08T07:20:10.056Z,33.48
2023-04-08T07:21:10.029Z,35.26
2023-04-08T07:22:09.995Z,33.51
2023-04-08T07:23:10.647Z,35.11
2023-04-08T07:24:09.943Z,30.90
2023-04-08T07:25:09.980Z,34.21
2023-04-08T07:26:09.908Z,34.31
2023-04-08T07:27:09.854Z,34.30
2023-04-08T07:28:09.821Z,34.46
2023-04-08T07:29:09.795Z,33.56
2023-04-08T07:30:09.773Z,35.54
2023-04-08T07:31:09.784Z,36.64
2023-04-08T07:32:09.722Z,34.79
2023-04-08T07:33:09.727Z,36.33
2023-04-08T07:34:09.690Z,35.23
2023-04-08T07:35:09.680Z,35.45
2023-04-08T07:36:09.652Z,37.83
2023-04-08T07:37:09.662Z,35.06
2023-04-08T07:38:09.672Z,34.87
2023-04-08T07:39:09.621Z,33.72
2023-04-08T07:40:09.636Z,34.74
2023-04-08T07:41:09.619Z,32.54
2023-04-08T07:42:09.576Z,37.62
2023-04-08T07:43:09.596Z,35.53
2023-04-08T07:44:09.570Z,34.65
2023-04-08T07:45:09.556Z,35.01
2023-04-08T07:46:09.570Z,32.68
2023-04-08T07:47:09.528Z,33.86
2023-04-08T07:48:09.568Z,35.58
2023-04-08T07:49:09.511Z,34.25
2023-04-08T07:50:09.507Z,32.89
2023-04-08T07:51:10.946Z,36.86
2023-04-08T07:52:09.461Z,35.00
2023-04-08T07:53:09.430Z,38.67
2023-04-08T07:54:09.400Z,38.69
2023-04-08T07:55:09.388Z,34.78
2023-04-08T07:56:09.344Z,36.29
2023-04-08T07:57:09.525Z,35.91
2023-04-08T07:58:09.281Z,36.71
2023-04-08T07:59:09.256Z,37.49
2023-04-08T08:00:09.224Z,35.09
2023-04-08T08:01:09.191Z,37.52
2023-04-08T08:02:09.194Z,34.46
2023-04-08T08:03:09.192Z,34.55
2023-04-08T08:04:09.307Z,34.89
2023-04-08T08:05:09.135Z,37.13
2023-04-08T08:06:09.070Z,35.75
2023-04-08T08:07:09.028Z,37.89
2023-04-08T08:08:08.999Z,36.95
2023-04-08T08:09:08.976Z,36.69
2023-04-08T08:10:08.952Z,34.47
2023-04-08T08:11:08.915Z,35.87
2023-04-08T08:12:08.879Z,37.40
2023-04-08T08:13:08.888Z,34.82
2023-04-08T08:14:08.839Z,35.32
2023-04-08T08:15:08.806Z,37.03
2023-04-08T08:16:09.109Z,35.80
2023-04-08T08:17:08.752Z,36.42
2023-04-08T08:18:08.765Z,34.52
2023-04-08T08:19:08.737Z,32.54
2023-04-08T08:20:08.652Z,35.35
2023-04-08T08:21:08.621Z,36.28
2023-04-08T08:22:08.588Z,36.08
2023-04-08T08:23:08.561Z,35.51
2023-04-08T08:24:08.533Z,36.43
2023-04-08T08:25:08.500Z,35.27
2023-04-08T08:26:08.474Z,33.78
2023-04-08T08:27:08.438Z,32.65
2023-04-08T08:28:08.408Z,33.30
2023-04-08T08:29:08.436Z,34.70
2023-04-08T08:30:08.362Z,33.57
2023-04-08T08:31:08.422Z,36.37
2023-04-08T08:32:08.295Z,35.39
2023-04-08T08:33:08.304Z,34.65
2023-04-08T08:34:08.251Z,32.66
2023-04-08T08:35:08.203Z,33.62
2023-04-08T08:36:08.193Z,33.77
2023-04-08T08:37:08.146Z,37.90
2023-04-08T08:38:08.113Z,34.09
2023-04-08T08:39:08.092Z,36.10
2023-04-08T08:40:08.070Z,34.15
2023-04-08T08:41:08.036Z,35.57
2023-04-08T08:42:08.007Z,36.71
2023-04-08T08:43:07.974Z,34.46
2023-04-08T08:44:07.944Z,32.85
2023-04-08T08:45:07.940Z,33.86
2023-04-08T08:46:07.895Z,35.00
2023-04-08T08:47:07.852Z,35.45
2023-04-08T08:48:07.838Z,35.19
2023-04-08T08:49:07.801Z,36.95
2023-04-08T08:50:07.750Z,36.03
2023-04-08T08:51:07.719Z,36.73
2023-04-08T08:52:07.702Z,35.02
2023-04-08T08:53:07.710Z,34.88
2023-04-08T08:54:07.641Z,34.79
2023-04-08T08:55:21.853Z,36.04
2023-04-08T08:57:07.544Z,36.77
2023-04-08T08:58:07.568Z,38.08
2023-04-08T08:59:07.491Z,39.37
2023-04-08T09:00:07.460Z,38.86
2023-04-08T09:01:07.456Z,38.63
2023-04-08T09:02:07.475Z,38.86
2023-04-08T09:03:07.630Z,36.79
2023-04-08T09:04:07.484Z,35.03
2023-04-08T09:05:07.505Z,36.29
2023-04-08T09:06:07.287Z,37.99
2023-04-08T09:07:07.249Z,38.20
2023-04-08T09:08:07.224Z,35.11
2023-04-08T09:09:07.187Z,36.90
2023-04-08T09:10:07.166Z,35.68
2023-04-08T09:11:07.145Z,37.68
2023-04-08T09:12:07.149Z,32.73
2023-04-08T09:13:07.088Z,35.46
2023-04-08T09:14:07.063Z,36.17
2023-04-08T09:15:07.050Z,34.82
2023-04-08T09:16:07.044Z,33.75
2023-04-08T09:17:07.014Z,36.55
2023-04-08T09:18:06.971Z,33.09
2023-04-08T09:19:06.942Z,34.15
2023-04-08T09:20:06.918Z,36.54
2023-04-08T09:21:06.908Z,35.40
2023-04-08T09:22:06.894Z,33.82
2023-04-08T09:23:06.843Z,37.05
2023-04-08T09:24:06.820Z,38.60
2023-04-08T09:25:06.793Z,34.90
2023-04-08T09:26:06.796Z,33.61
2023-04-08T09:27:06.753Z,34.19
2023-04-08T09:28:06.732Z,34.76
2023-04-08T09:29:24.330Z,35.30
2023-04-08T09:30:06.662Z,35.68
2023-04-08T09:31:06.636Z,36.41
2023-04-08T09:32:06.858Z,36.74
2023-04-08T09:33:06.628Z,38.38
2023-04-08T09:34:06.587Z,35.41
2023-04-08T09:35:07.046Z,35.19
2023-04-08T09:36:06.514Z,35.28
2023-04-08T09:37:06.484Z,36.71
2023-04-08T09:38:06.478Z,35.59
2023-04-08T09:39:06.428Z,35.26
2023-04-08T09:40:06.418Z,37.26
2023-04-08T09:41:06.365Z,33.49
2023-04-08T09:42:06.350Z,35.33
2023-04-08T09:43:06.334Z,38.10
2023-04-08T09:44:06.290Z,35.28
2023-04-08T09:45:06.274Z,34.69
2023-04-08T09:46:06.282Z,33.84
2023-04-08T09:47:06.205Z,32.88
2023-04-08T09:48:06.314Z,32.88
2023-04-08T09:49:06.220Z,36.81
2023-04-08T09:50:06.120Z,36.23
2023-04-08T09:51:06.088Z,32.83
2023-04-08T09:52:06.078Z,32.32
2023-04-08T09:53:06.055Z,33.26
2023-04-08T09:54:06.009Z,33.75
2023-04-08T09:55:05.978Z,35.08
2023-04-08T09:56:05.974Z,35.46
2023-04-08T09:57:05.926Z,34.60
2023-04-08T09:58:05.903Z,36.48
2023-04-08T09:59:06.875Z,38.08
2023-04-08T10:00:05.904Z,36.91
2023-04-08T10:01:05.918Z,37.42
2023-04-08T10:02:05.867Z,38.37
2023-04-08T10:03:05.972Z,36.55
2023-04-08T10:04:05.788Z,38.00
2023-04-08T10:05:08.343Z,35.77
2023-04-08T10:06:05.723Z,36.03
2023-04-08T10:07:05.702Z,35.87
2023-04-08T10:08:05.703Z,36.27
2023-04-08T10:09:05.649Z,37.97
2023-04-08T10:10:05.632Z,39.17
2023-04-08T10:11:05.595Z,37.06
2023-04-08T10:12:05.578Z,37.12
2023-04-08T10:13:05.545Z,37.58
2023-04-08T10:14:05.531Z,41.02
2023-04-08T10:15:05.499Z,41.21
2023-04-08T10:16:06.573Z,36.86
2023-04-08T10:17:05.473Z,37.20
2023-04-08T10:18:05.486Z,38.20
2023-04-08T10:19:05.404Z,39.19
2023-04-08T10:20:05.391Z,40.02
2023-04-08T10:21:05.410Z,41.08
2023-04-08T10:22:07.494Z,41.84
2023-04-08T10:23:05.327Z,41.30
2023-04-08T10:24:05.315Z,33.67
2023-04-08T10:25:05.284Z,36.26
2023-04-08T10:26:05.261Z,39.11
2023-04-08T10:27:05.253Z,34.32
2023-04-08T10:28:07.241Z,31.65
2023-04-08T10:29:05.197Z,32.00
2023-04-08T10:30:05.174Z,32.46
2023-04-08T10:31:05.155Z,31.68
2023-04-08T10:32:05.140Z,22.46
2023-04-08T10:33:05.160Z,25.42
2023-04-08T10:34:05.075Z,32.02
2023-04-08T10:35:05.062Z,29.98
2023-04-08T10:36:05.049Z,30.65
2023-04-08T10:37:05.035Z,27.07
2023-04-08T10:38:04.991Z,29.07
2023-04-08T10:39:04.952Z,27.16
2023-04-08T10:40:04.908Z,29.84
2023-04-08T10:41:04.879Z,28.93
2023-04-08T10:42:04.858Z,31.00
2023-04-08T10:43:04.860Z,26.85
2023-04-08T10:44:04.814Z,27.33
2023-04-08T10:45:04.780Z,28.09
2023-04-08T10:46:04.950Z,28.79
2023-04-08T10:47:04.710Z,27.56
2023-04-08T10:48:04.733Z,34.38
2023-04-08T10:49:04.684Z,27.71
2023-04-08T10:50:04.637Z,28.08
2023-04-08T10:51:04.614Z,26.75
2023-04-08T10:52:04.598Z,26.59
2023-04-08T10:53:04.602Z,26.72
2023-04-08T10:54:04.559Z,26.87
2023-04-08T10:55:04.540Z,28.67
2023-04-08T10:56:04.509Z,29.62
2023-04-08T10:57:04.489Z,27.92
2023-04-08T10:58:04.456Z,28.97
2023-04-08T10:59:04.436Z,30.91
2023-04-08T11:00:04.410Z,30.40
2023-04-08T11:01:04.502Z,28.99
2023-04-08T11:02:04.492Z,28.72
2023-04-08T11:03:04.491Z,29.20
2023-04-08T11:04:04.416Z,31.49
2023-04-08T11:05:04.281Z,27.33
2023-04-08T11:06:04.281Z,28.12
2023-04-08T11:07:04.257Z,25.73
2023-04-08T11:08:04.271Z,25.60
2023-04-08T11:09:04.247Z,30.80
2023-04-08T11:10:04.193Z,26.23
2023-04-08T11:11:04.177Z,28.56
2023-04-08T11:12:04.224Z,26.62
2023-04-08T11:13:04.211Z,26.66
2023-04-08T11:14:04.121Z,26.73
2023-04-08T11:15:04.115Z,29.16
2023-04-08T11:16:16.592Z,27.77
2023-04-08T11:17:04.061Z,28.26
2023-04-08T11:18:04.092Z,29.98
2023-04-08T11:19:04.006Z,30.79
2023-04-08T11:20:03.990Z,33.80
2023-04-08T11:21:03.973Z,36.36
2023-04-08T11:22:03.954Z,35.19
2023-04-08T11:23:03.933Z,34.58
2023-04-08T11:24:03.906Z,37.03
2023-04-08T11:25:03.906Z,45.54
2023-04-08T11:26:05.179Z,44.40
2023-04-08T11:27:03.845Z,44.50
2023-04-08T11:28:03.825Z,44.60
2023-04-08T11:29:03.795Z,41.99
2023-04-08T11:30:03.783Z,40.64
2023-04-08T11:31:04.525Z,46.92
2023-04-08T11:32:03.730Z,44.90
2023-04-08T11:33:03.749Z,45.45
2023-04-08T11:34:03.676Z,46.75
2023-04-08T11:35:03.649Z,45.76
2023-04-08T11:36:03.677Z,44.33
2023-04-08T11:37:03.620Z,45.00
2023-04-08T11:38:03.572Z,47.98
2023-04-08T11:39:03.555Z,47.34
2023-04-08T11:40:03.526Z,48.38
2023-04-08T11:41:03.528Z,43.62
2023-04-08T11:42:03.519Z,50.19
2023-04-08T11:43:03.476Z,49.48
2023-04-08T11:44:03.449Z,47.84
2023-04-08T11:45:03.440Z,49.59
2023-04-08T11:46:03.460Z,49.64
2023-04-08T11:47:03.404Z,50.69
2023-04-08T11:48:04.815Z,50.39
2023-04-08T11:49:03.435Z,51.84
2023-04-08T11:50:03.413Z,52.33
2023-04-08T11:51:03.403Z,52.61
2023-04-08T11:52:03.388Z,52.97
2023-04-08T11:53:03.399Z,56.87
2023-04-08T11:54:03.332Z,56.67
2023-04-08T11:55:03.319Z,56.21
2023-04-08T11:56:03.303Z,59.14
2023-04-08T11:57:03.303Z,56.84
2023-04-08T11:58:03.299Z,59.73
2023-04-08T11:59:03.274Z,56.78
2023-04-08T12:00:03.251Z,60.14
2023-04-08T12:01:03.208Z,59.27
2023-04-08T12:02:03.219Z,58.00
2023-04-08T12:03:03.233Z,57.69
2023-04-08T12:04:03.315Z,60.30
2023-04-08T12:05:03.235Z,59.76
2023-04-08T12:06:03.127Z,61.98
2023-04-08T12:07:03.099Z,63.18
2023-04-08T12:08:03.099Z,63.56
2023-04-08T12:09:03.060Z,62.71
2023-04-08T12:10:03.036Z,63.04
2023-04-08T12:11:16.663Z,64.32
2023-04-08T12:12:02.994Z,64.66
2023-04-08T12:13:02.997Z,65.41
2023-04-08T12:14:02.940Z,65.39
2023-04-08T12:15:02.907Z,66.34
2023-04-08T12:16:02.932Z,68.19
2023-04-08T12:17:02.861Z,68.34
2023-04-08T12:18:02.928Z,69.11
2023-04-08T12:19:02.888Z,65.10
2023-04-08T12:20:02.800Z,69.51
2023-04-08T12:21:02.765Z,66.13
2023-04-08T12:22:02.738Z,72.54
2023-04-08T12:23:02.726Z,68.26
2023-04-08T12:24:02.692Z,68.59
2023-04-08T12:25:02.661Z,68.89
2023-04-08T12:26:02.641Z,66.76
2023-04-08T12:27:02.623Z,66.40
2023-04-08T12:28:03.548Z,69.12
2023-04-08T12:29:02.605Z,72.93
2023-04-08T12:30:02.560Z,70.11
2023-04-08T12:31:02.665Z,69.85
2023-04-08T12:32:02.590Z,72.47
2023-04-08T12:33:02.491Z,72.78
2023-04-08T12:34:02.460Z,71.42
2023-04-08T12:35:02.438Z,70.24
2023-04-08T12:36:02.486Z,70.67
2023-04-08T12:37:02.379Z,71.56
2023-04-08T12:38:02.351Z,72.04
2023-04-08T12:39:02.339Z,71.86
2023-04-08T12:40:02.281Z,72.56
2023-04-08T12:41:02.290Z,72.85
2023-04-08T12:42:02.235Z,73.91
2023-04-08T12:43:02.210Z,73.71
2023-04-08T12:44:02.191Z,72.90
2023-04-08T12:45:02.208Z,73.03
2023-04-08T12:46:02.142Z,72.54
2023-04-08T12:47:02.162Z,72.74
2023-04-08T12:48:02.105Z,74.24
2023-04-08T12:49:04.636Z,72.99
2023-04-08T12:50:02.031Z,73.21
2023-04-08T12:51:02.008Z,73.79
2023-04-08T12:52:01.976Z,75.62
2023-04-08T12:53:01.953Z,75.10
2023-04-08T12:54:02.050Z,77.84